createdAt,value
2023-04-26T00:09:14.686Z,10.50
2023-04-26T00:19:18.391Z,10.50
2023-04-26T00:29:22.264Z,10.10
2023-04-26T00:39:25.844Z,18.70
2023-04-26T00:49:29.186Z,12.70
2023-04-26T00:59:32.545Z,14.00
2023-04-26T01:09:35.896Z,15.30
2023-04-26T01:19:50.638Z,15.90
2023-04-26T01:29:54.228Z,14.90
2023-04-26T01:39:57.560Z,9.00
2023-04-26T01:50:00.600Z,13.70
2023-04-26T02:00:05.060Z,15.00
2023-04-26T02:10:16.355Z,12.00
2023-04-26T02:20:21.564Z,7.50
2023-04-26T02:30:24.666Z,15.20
2023-04-26T02:40:27.917Z,11.50
2023-04-26T02:50:31.724Z,11.80
2023-04-26T03:00:35.056Z,12.20
2023-04-26T03:10:38.613Z,12.80
2023-04-26T03:20:42.375Z,12.50
2023-04-26T03:30:46.082Z,11.50
2023-04-26T03:40:49.923Z,8.80
2023-04-26T03:50:53.897Z,9.30
2023-04-26T04:00:58.683Z,11.70
2023-04-26T04:11:02.424Z,16.30
2023-04-26T04:21:06.908Z,11.20
2023-04-26T04:31:10.575Z,13.70
2023-04-26T04:41:14.822Z,11.60
2023-04-26T04:51:18.223Z,15.50
2023-04-26T05:01:22.128Z,10.60
2023-04-26T05:11:29.878Z,12.40
2023-04-26T05:21:33.605Z,12.40
2023-04-26T05:31:37.079Z,10.00
2023-04-26T05:41:58.754Z,10.10
2023-04-26T05:52:03.781Z,11.20
2023-04-26T06:02:07.516Z,11.60
2023-04-26T06:12:11.353Z,8.70
2023-04-26T06:22:17.246Z,9.90
2023-04-26T06:32:20.501Z,9.90
2023-04-26T06:42:24.298Z,10.40
2023-04-26T06:52:50.613Z,8.80
2023-04-26T07:02:54.040Z,8.60
2023-04-26T07:12:57.713Z,9.80
2023-04-26T07:23:00.898Z,7.80
2023-04-26T07:33:04.136Z,10.50
2023-04-26T07:43:07.547Z,8.60
2023-04-26T07:53:10.850Z,8.80
2023-04-26T08:03:18.346Z,6.50
2023-04-26T08:23:25.168Z,7.90
2023-04-26T08:34:56.946Z,8.30
2023-04-26T08:55:28.740Z,8.30
2023-04-26T09:05:34.545Z,8.70
2023-04-26T09:15:38.225Z,7.00
2023-04-26T09:25:41.564Z,7.80
2023-04-26T09:35:45.054Z,7.40
2023-04-26T09:45:50.771Z,6.20
2023-04-26T09:55:55.713Z,4.60
2023-04-26T10:05:58.816Z,6.50
2023-04-26T10:16:03.173Z,13.80
2023-04-26T10:26:06.576Z,5.20
2023-04-26T10:36:12.438Z,10.20
2023-04-26T10:46:43.446Z,6.60
2023-04-26T10:56:46.614Z,5.60
2023-04-26T11:06:54.474Z,6.50
2023-04-26T11:16:57.788Z,7.70
2023-04-26T11:27:00.848Z,9.20
2023-04-26T11:37:05.146Z,5.90
2023-04-26T11:47:10.235Z,4.80
2023-04-26T11:57:17.174Z,5.50
2023-04-26T12:17:28.638Z,3.30
2023-04-26T12:27:32.397Z,4.20
2023-04-26T12:37:35.671Z,6.00
2023-04-26T12:47:38.948Z,6.20
2023-04-26T12:57:44.367Z,7.50
2023-04-26T13:07:48.090Z,6.00
2023-04-26T13:17:51.301Z,12.70
2023-04-26T13:27:55.569Z,6.20
2023-04-26T13:37:58.804Z,8.00
2023-04-26T13:48:02.025Z,6.20
2023-04-26T13:58:05.215Z,6.80
2023-04-26T14:08:08.408Z,3.20
2023-04-26T14:18:11.764Z,9.20
2023-04-26T14:28:16.684Z,5.00
2023-04-26T14:38:20.174Z,7.00
2023-04-26T14:48:23.562Z,3.90
2023-04-26T14:58:27.452Z,5.20
2023-04-26T15:08:30.563Z,4.60
2023-04-26T15:18:34.031Z,5.40
2023-04-26T15:28:37.429Z,4.20
2023-04-26T15:38:45.135Z,4.80
2023-04-26T15:58:51.761Z,4.20
2023-04-26T16:09:04.688Z,3.60
2023-04-26T16:30:07.638Z,4.70
2023-04-26T16:40:16.076Z,8.40
2023-04-26T16:50:26.962Z,6.50
2023-04-26T17:00:30.661Z,6.20
2023-04-26T17:10:40.419Z,7.00
2023-04-26T17:20:46.635Z,8.00
2023-04-26T17:30:52.055Z,8.70
2023-04-26T17:41:04.428Z,8.10
2023-04-26T17:51:18.181Z,13.40
2023-04-26T18:01:23.729Z,8.00
2023-04-26T18:11:27.199Z,10.40
2023-04-26T18:21:31.977Z,11.50
2023-04-26T18:31:35.377Z,8.70
2023-04-26T18:41:39.740Z,11.00
2023-04-26T18:51:44.131Z,14.40
2023-04-26T19:02:18.648Z,11.90
2023-04-26T19:12:50.317Z,15.60
2023-04-26T19:22:57.899Z,18.10
2023-04-26T19:33:01.012Z,16.90
2023-04-26T19:43:04.493Z,14.60
2023-04-26T19:53:09.971Z,15.70
2023-04-26T20:03:13.300Z,15.60
2023-04-26T20:13:16.494Z,21.90
2023-04-26T20:23:19.707Z,27.40
2023-04-26T20:33:22.908Z,37.20
2023-04-26T20:43:26.096Z,37.80
2023-04-26T20:53:29.444Z,34.50
2023-04-26T21:03:32.750Z,37.40
2023-04-26T21:13:36.037Z,38.10
2023-04-26T21:23:39.133Z,28.10
2023-04-26T21:33:42.256Z,31.10
2023-04-26T21:43:45.928Z,23.80
2023-04-26T21:53:49.113Z,31.40
2023-04-26T22:03:52.282Z,22.20
2023-04-26T22:13:55.606Z,21.10
2023-04-26T22:23:58.780Z,19.80
2023-04-26T22:34:02.316Z,24.20
2023-04-26T22:44:05.704Z,20.10
2023-04-26T22:54:08.915Z,21.10
2023-04-26T23:04:12.057Z,19.10
2023-04-26T23:14:16.155Z,15.60
2023-04-26T23:24:19.516Z,13.60
2023-04-26T23:34:22.586Z,19.00
2023-04-26T23:44:25.783Z,15.90
2023-04-26T23:54:29.187Z,17.70
